CheckWX is a tool to help pilots better visualize weather data.  It is not intended as a substitute for an official pre-flight weather briefing.

07:50:52 UTC

KBLI METAR
Bellingham International Airport
Bellingham, Washington, USA
Current

58 mins ago

KBLI 030653Z AUTO 00000KT 10SM FEW029 OVC060 06/M01 A3013 RMK AO2 SLP211 T00611011
Observed
Apr-3 @ 06:53 UTC
Visibility
Flight Rules
VFR
Cloud Levels
  • Few at 2,900' AGL
  • Overcast at 6,000' AGL
Temperature
C / 43°F
Dewpoint
-1°C / 30°F
Humidity
61%
Altimeter
30.13" Hg
Pressure
1020.32 hPa
Previous

2 hours ago

KBLI 030553Z AUTO 00000KT 10SM FEW035 OVC060 07/M01 A3013 RMK AO2 SLP212 T00671006 10083 20067 53000
Observed
Apr-3 @ 05:53 UTC
Visibility
Flight Rules
VFR
Cloud Levels
  • Few at 3,500' AGL
  • Overcast at 6,000' AGL
Temperature
C / 45°F
Dewpoint
-1°C / 30°F
Humidity
57%
Altimeter
30.13" Hg
Pressure
1020.32 hPa
Previous

3 hours ago

KBLI 030453Z 18003KT 10SM OVC070 07/01 A3012 RMK AO2 SLP209 T00720006
Observed
Apr-3 @ 04:53 UTC
Wind
  • 180° at 3 KTS
Visibility
Flight Rules
VFR
Cloud Levels
  • Overcast at 7,000' AGL
Temperature
C / 45°F
Dewpoint
C / 34°F
Humidity
66%
Altimeter
30.12" Hg
Pressure
1020.02 hPa